TimeCST,TemperatureF,Dew PointF,Humidity,Sea Level PressureIn,VisibilityMPH,Wind Direction,Wind SpeedMPH,Gust SpeedMPH,PrecipitationIn,Events,Conditions,WindDirDegrees,DateUTC
12:15 AM,-6.3,-15.3,65,30.44,10.0,SW,8.1,-,N/A,,Clear,220,2013-12-12 06:15:00
12:35 AM,-4.7,-13.9,65,30.45,10.0,SW,9.2,-,N/A,,Clear,220,2013-12-12 06:35:00
12:55 AM,-4.5,-13.4,66,30.44,10.0,SW,6.9,-,N/A,,Clear,220,2013-12-12 06:55:00
1:15 AM,-5.8,-14.3,67,30.43,10.0,SSW,5.8,-,N/A,,Clear,210,2013-12-12 07:15:00
1:35 AM,-6.0,-14.1,68,30.43,10.0,SSW,5.8,-,N/A,,Clear,210,2013-12-12 07:35:00
1:55 AM,-5.6,-13.5,69,30.42,10.0,South,5.8,-,N/A,,Clear,190,2013-12-12 07:55:00
2:15 AM,-4.7,-12.5,69,30.42,10.0,SSW,9.2,-,N/A,,Scattered Clouds,200,2013-12-12 08:15:00
2:35 AM,-4.0,-11.7,69,30.42,10.0,SSW,10.4,-,N/A,,Mostly Cloudy,210,2013-12-12 08:35:00
2:55 AM,-4.2,-11.9,69,30.41,10.0,SSW,10.4,-,N/A,,Mostly Cloudy,200,2013-12-12 08:55:00
3:15 AM,-4.0,-11.4,71,30.40,10.0,SSW,9.2,-,N/A,,Mostly Cloudy,210,2013-12-12 09:15:00
3:35 AM,-3.3,-11.0,69,30.38,10.0,SSW,10.4,-,N/A,,Overcast,200,2013-12-12 09:35:00
3:55 AM,-2.6,-10.1,70,30.37,10.0,SSW,10.4,-,N/A,,Overcast,210,2013-12-12 09:55:00
4:15 AM,-2.2,-10.3,68,30.36,10.0,SSW,9.2,-,N/A,,Overcast,200,2013-12-12 10:15:00
4:35 AM,-1.5,-9.8,68,30.35,10.0,SSW,12.7,-,N/A,,Overcast,200,2013-12-12 10:35:00
4:55 AM,-1.1,-9.2,69,30.35,3.0,SSW,10.4,-,N/A,Snow,Light Snow,200,2013-12-12 10:55:00
5:15 AM,-0.4,-8.0,70,30.33,3.0,South,9.2,-,N/A,Snow,Light Snow,190,2013-12-12 11:15:00
5:35 AM,0.1,-7.6,70,30.31,7.0,South,10.4,-,N/A,Snow,Light Snow,170,2013-12-12 11:35:00
5:55 AM,0.7,-7.8,68,30.29,10.0,South,13.8,-,N/A,,Overcast,170,2013-12-12 11:55:00
6:15 AM,1.4,-7.8,65,30.28,10.0,South,12.7,-,N/A,,Overcast,190,2013-12-12 12:15:00
6:35 AM,1.8,-7.6,65,30.29,10.0,SSW,11.5,-,N/A,,Overcast,210,2013-12-12 12:35:00
6:55 AM,1.9,-7.6,64,30.28,10.0,SSW,10.4,-,N/A,,Mostly Cloudy,210,2013-12-12 12:55:00
7:15 AM,2.1,-7.6,64,30.28,10.0,SSW,10.4,-,N/A,,Scattered Clouds,210,2013-12-12 13:15:00
7:35 AM,2.3,-6.9,66,30.28,10.0,SSW,12.7,-,N/A,,Clear,210,2013-12-12 13:35:00
7:55 AM,2.5,-6.7,66,30.28,10.0,SSW,10.4,-,N/A,,Clear,210,2013-12-12 13:55:00
8:15 AM,3.0,-6.3,65,30.28,10.0,SSW,10.4,-,N/A,,Clear,210,2013-12-12 14:15:00
8:35 AM,3.2,-6.2,65,30.27,10.0,SSW,9.2,-,N/A,,Clear,210,2013-12-12 14:35:00
8:55 AM,4.5,-5.3,64,30.27,10.0,SSW,10.4,-,N/A,,Clear,210,2013-12-12 14:55:00
9:15 AM,5.5,-4.9,62,30.27,10.0,SW,11.5,-,N/A,,Clear,220,2013-12-12 15:15:00
9:35 AM,7.2,-4.4,59,30.28,10.0,SW,11.5,-,N/A,,Clear,230,2013-12-12 15:35:00
9:55 AM,8.2,-4.4,57,30.29,10.0,WSW,13.8,-,N/A,,Clear,240,2013-12-12 15:55:00
10:15 AM,8.6,-4.0,57,30.28,10.0,SW,15.0,-,N/A,,Clear,230,2013-12-12 16:15:00
10:35 AM,9.3,-3.3,57,30.28,10.0,WSW,13.8,-,N/A,,Clear,240,2013-12-12 16:35:00
10:55 AM,10.2,-2.4,57,30.28,10.0,WSW,15.0,-,N/A,,Clear,250,2013-12-12 16:55:00
11:15 AM,10.4,-2.0,57,30.27,10.0,WSW,13.8,-,N/A,,Clear,240,2013-12-12 17:15:00
11:35 AM,10.9,-1.8,56,30.27,10.0,SW,13.8,-,N/A,,Clear,230,2013-12-12 17:35:00
11:55 AM,11.7,-1.3,56,30.26,10.0,SW,12.7,-,N/A,,Clear,230,2013-12-12 17:55:00
12:15 PM,11.8,-0.8,57,30.25,10.0,WSW,12.7,-,N/A,,Clear,240,2013-12-12 18:15:00
12:35 PM,12.4,-0.2,57,30.24,10.0,SW,13.8,-,N/A,,Clear,220,2013-12-12 18:35:00
12:55 PM,13.1,0.3,57,30.23,10.0,SW,11.5,-,N/A,,Clear,220,2013-12-12 18:55:00
1:15 PM,13.8,1.4,58,30.23,10.0,WSW,11.5,-,N/A,,Clear,240,2013-12-12 19:15:00
1:35 PM,14.2,1.6,57,30.23,10.0,WSW,10.4,-,N/A,,Clear,240,2013-12-12 19:35:00
1:55 PM,14.4,2.5,59,30.22,10.0,WSW,10.4,-,N/A,,Clear,240,2013-12-12 19:55:00
2:15 PM,14.9,2.5,58,30.22,10.0,SW,11.5,-,N/A,,Clear,230,2013-12-12 20:15:00
2:35 PM,15.6,3.0,58,30.22,10.0,SW,13.8,-,N/A,,Clear,230,2013-12-12 20:35:00
2:55 PM,15.8,3.2,58,30.21,10.0,SW,12.7,-,N/A,,Clear,220,2013-12-12 20:55:00
3:15 PM,15.8,3.0,57,30.20,10.0,SW,10.4,-,N/A,,Clear,230,2013-12-12 21:15:00
3:35 PM,15.6,3.2,58,30.20,10.0,SW,11.5,-,N/A,,Clear,220,2013-12-12 21:35:00
3:55 PM,14.2,3.0,61,30.20,10.0,SSW,9.2,-,N/A,,Clear,210,2013-12-12 21:55:00
4:15 PM,13.1,2.8,64,30.21,10.0,SSW,6.9,-,N/A,,Clear,210,2013-12-12 22:15:00
4:35 PM,11.7,2.3,66,30.21,10.0,SSW,6.9,-,N/A,,Clear,210,2013-12-12 22:35:00
4:55 PM,11.1,2.1,67,30.21,10.0,SSW,6.9,-,N/A,,Clear,210,2013-12-12 22:55:00
5:15 PM,10.8,1.4,66,30.20,10.0,South,5.8,-,N/A,,Scattered Clouds,190,2013-12-12 23:15:00
5:35 PM,12.2,2.8,66,30.21,10.0,SSW,4.6,-,N/A,,Overcast,200,2013-12-12 23:35:00
5:55 PM,11.1,2.3,68,30.20,10.0,SSW,8.1,-,N/A,,Mostly Cloudy,200,2013-12-12 23:55:00
6:15 PM,12.6,3.9,68,30.20,10.0,South,5.8,-,N/A,,Overcast,190,2013-12-13 00:15:00
6:35 PM,13.6,4.3,66,30.20,10.0,South,6.9,-,N/A,,Overcast,190,2013-12-13 00:35:00
6:55 PM,14.0,4.8,67,30.20,10.0,SSW,9.2,-,N/A,,Overcast,200,2013-12-13 00:55:00
7:15 PM,14.2,5.4,68,30.20,10.0,SSW,11.5,-,N/A,,Overcast,200,2013-12-13 01:15:00
7:35 PM,13.6,5.0,68,30.19,10.0,SSW,8.1,-,N/A,,Overcast,200,2013-12-13 01:35:00
7:55 PM,13.8,5.5,70,30.20,10.0,SSW,6.9,-,N/A,,Overcast,210,2013-12-13 01:55:00
8:15 PM,14.5,6.3,70,30.19,10.0,SSW,6.9,-,N/A,,Overcast,210,2013-12-13 02:15:00
8:35 PM,14.5,6.4,70,30.19,10.0,South,6.9,-,N/A,,Overcast,190,2013-12-13 02:35:00
8:55 PM,14.5,6.8,71,30.19,10.0,SSW,9.2,-,N/A,,Overcast,200,2013-12-13 02:55:00
9:15 PM,14.7,7.0,71,30.17,10.0,SSW,10.4,-,N/A,,Overcast,200,2013-12-13 03:15:00
9:35 PM,14.9,7.2,71,30.18,10.0,SSW,10.4,-,N/A,,Overcast,210,2013-12-13 03:35:00
9:55 PM,15.4,7.5,71,30.17,10.0,SW,10.4,-,N/A,,Overcast,220,2013-12-13 03:55:00
10:15 PM,15.4,7.5,71,30.16,10.0,SSW,8.1,-,N/A,,Overcast,210,2013-12-13 04:15:00
10:35 PM,15.6,7.7,71,30.15,10.0,SW,6.9,-,N/A,,Overcast,220,2013-12-13 04:35:00
10:55 PM,15.4,7.5,71,30.15,10.0,SW,4.6,-,N/A,,Overcast,230,2013-12-13 04:55:00
11:15 PM,15.4,7.5,71,30.15,10.0,SSW,6.9,-,N/A,,Mostly Cloudy,210,2013-12-13 05:15:00
11:35 PM,15.3,7.7,72,30.16,10.0,SW,3.5,-,N/A,,Scattered Clouds,230,2013-12-13 05:35:00
11:55 PM,14.9,7.7,73,30.15,10.0,SSW,3.5,-,N/A,,Clear,210,2013-12-13 05:55:00